Time;durP1;ratioP1;P1;durP2;ratioP2;P2;SDS_P1;SDS_P2;PMS_P1;PMS_P2;Temp;Humidity;BMP_temperature;BMP_pressure;BME280_temperature;BME280_humidity;BME280_pressure;Samples;Min_cycle;Max_cycle;Signal;HPM_P1;HPM_P2
2021/03/28 00:01:51;;;;;;;2.63;0.75;;;;;;;;;;5000503;28;20461;-56
2021/03/28 00:04:18;;;;;;;3.53;0.60;;;;;;;;;;5000289;28;20037;-57
2021/03/28 00:06:50;;;;;;;4.80;0.70;;;;;;;;;;5000262;28;20045;-57
2021/03/28 00:09:24;;;;;;;3.00;0.90;;;;;;;;;;5002422;28;20045;-56
2021/03/28 00:11:56;;;;;;;2.60;0.70;;;;;;;;;;4986343;28;20037;-57
2021/03/28 00:14:36;;;;;;;2.75;0.77;;;;;;;;;;4997724;28;20069;-57
2021/03/28 00:17:20;;;;;;;3.08;0.77;;;;;;;;;;5001494;28;20059;-58
2021/03/28 00:19:52;;;;;;;3.33;0.98;;;;;;;;;;5000260;28;20042;-57
2021/03/28 00:22:23;;;;;;;3.45;0.80;;;;;;;;;;4998222;28;20046;-56
2021/03/28 00:24:52;;;;;;;5.45;1.40;;;;;;;;;;4985597;28;20073;-57
2021/03/28 00:27:25;;;;;;;4.78;0.80;;;;;;;;;;4970392;28;20040;-56
2021/03/28 00:29:58;;;;;;;4.65;0.80;;;;;;;;;;4970418;28;20038;-58
2021/03/28 00:32:44;;;;;;;6.30;0.80;;;;;;;;;;4964362;28;20345;-57
2021/03/28 00:35:12;;;;;;;4.53;0.73;;;;;;;;;;4964932;28;20034;-56
2021/03/28 00:37:40;;;;;;;5.60;0.70;;;;;;;;;;4964059;28;20049;-58
2021/03/28 00:40:09;;;;;;;3.25;0.80;;;;;;;;;;4965245;28;20512;-56
2021/03/28 00:42:43;;;;;;;4.10;0.80;;;;;;;;;;4964349;28;20055;-55
2021/03/28 00:45:09;;;;;;;3.80;0.80;;;;;;;;;;4963625;28;20518;-56
2021/03/28 00:47:36;;;;;;;3.75;0.70;;;;;;;;;;4964361;28;20050;-53
2021/03/28 00:50:26;;;;;;;6.95;1.10;;;;;;;;;;4964726;28;20035;-57
2021/03/28 00:52:56;;;;;;;2.80;0.73;;;;;;;;;;4962282;28;20051;-56
2021/03/28 00:55:26;;;;;;;2.88;0.70;;;;;;;;;;4959764;28;20058;-56
2021/03/28 00:58:04;;;;;;;4.22;0.70;;;;;;;;;;4961746;28;20484;-57
2021/03/28 01:00:48;;;;;;;7.22;0.75;;;;;;;;;;4963871;28;20062;-55
2021/03/28 01:03:45;;;;;;;3.08;0.70;;;;;;;;;;4963548;28;20057;-55
2021/03/28 01:06:14;;;;;;;4.63;0.70;;;;;;;;;;4964376;28;20095;-56
2021/03/28 01:09:06;;;;;;;2.70;0.70;;;;;;;;;;4963636;28;20093;-56
2021/03/28 01:11:50;;;;;;;3.25;0.90;;;;;;;;;;4967149;28;20478;-57
2021/03/28 01:14:22;;;;;;;7.03;0.90;;;;;;;;;;4962699;28;20139;-56
2021/03/28 01:17:06;;;;;;;3.28;1.00;;;;;;;;;;4964410;28;20043;-56
2021/03/28 01:19:38;;;;;;;3.28;0.90;;;;;;;;;;4961874;28;20137;-56
2021/03/28 01:22:10;;;;;;;4.45;1.08;;;;;;;;;;4962911;28;20058;-56
2021/03/28 01:24:51;;;;;;;6.18;0.88;;;;;;;;;;4962849;28;20518;-56
2021/03/28 01:27:31;;;;;;;5.30;1.00;;;;;;;;;;4961945;28;20411;-56
2021/03/28 01:29:56;;;;;;;8.90;1.20;;;;;;;;;;4962904;28;20051;-57
2021/03/28 01:32:25;;;;;;;5.03;1.02;;;;;;;;;;4961937;28;20843;-57
2021/03/28 01:34:59;;;;;;;5.85;1.00;;;;;;;;;;4962009;28;20658;-57
2021/03/28 01:37:31;;;;;;;4.95;1.17;;;;;;;;;;4962804;28;21441;-57
2021/03/28 01:40:09;;;;;;;10.23;1.77;;;;;;;;;;4964559;28;20129;-57
2021/03/28 01:42:40;;;;;;;7.15;1.35;;;;;;;;;;4963154;28;20042;-57
2021/03/28 01:45:14;;;;;;;4.80;1.33;;;;;;;;;;4960139;28;20042;-53
2021/03/28 01:47:59;;;;;;;6.82;1.40;;;;;;;;;;4961605;28;20031;-56
2021/03/28 01:50:32;;;;;;;14.50;1.35;;;;;;;;;;4967628;28;20085;-54
2021/03/28 01:53:01;;;;;;;3.35;1.20;;;;;;;;;;4962851;28;20153;-57
2021/03/28 01:55:35;;;;;;;10.45;1.80;;;;;;;;;;4960105;28;20153;-56
2021/03/28 01:58:08;;;;;;;11.45;1.58;;;;;;;;;;4961585;28;20078;-57
2021/03/28 02:00:44;;;;;;;7.72;1.52;;;;;;;;;;4962287;28;20149;-55
2021/03/28 02:03:16;;;;;;;23.13;7.18;;;;;;;;;;4962868;28;20170;-56
2021/03/28 02:05:51;;;;;;;10.57;3.83;;;;;;;;;;4961191;28;20065;-55
2021/03/28 02:08:17;;;;;;;9.50;2.10;;;;;;;;;;4961600;28;20034;-55
2021/03/28 02:10:48;;;;;;;6.82;1.95;;;;;;;;;;4963948;28;20423;-55
2021/03/28 02:13:17;;;;;;;6.80;1.40;;;;;;;;;;4962533;28;20492;-56
2021/03/28 02:16:03;;;;;;;7.50;1.80;;;;;;;;;;4963360;28;20135;-54
2021/03/28 02:18:47;;;;;;;12.55;2.05;;;;;;;;;;4962759;28;20496;-57
2021/03/28 02:21:28;;;;;;;13.63;2.20;;;;;;;;;;4964101;28;20046;-56
2021/03/28 02:24:00;;;;;;;14.25;2.30;;;;;;;;;;4937597;28;20042;-53
2021/03/28 02:26:35;;;;;;;11.70;1.70;;;;;;;;;;4963231;28;20035;-56
2021/03/28 02:29:11;;;;;;;11.20;2.30;;;;;;;;;;4963903;28;20046;-54
2021/03/28 02:31:49;;;;;;;9.52;2.45;;;;;;;;;;4962562;28;20113;-55
2021/03/28 02:34:20;;;;;;;16.50;5.93;;;;;;;;;;4962860;28;20038;-53
2021/03/28 02:37:04;;;;;;;16.75;4.40;;;;;;;;;;4963693;28;20046;-54
2021/03/28 02:39:33;;;;;;;11.98;3.38;;;;;;;;;;4960788;28;20046;-56
2021/03/28 02:42:01;;;;;;;34.40;4.38;;;;;;;;;;4963726;28;20474;-57
2021/03/28 02:44:44;;;;;;;18.85;4.30;;;;;;;;;;4962232;28;20038;-53
2021/03/28 02:47:22;;;;;;;22.27;3.85;;;;;;;;;;4958954;28;20108;-55
2021/03/28 02:50:00;;;;;;;28.73;3.88;;;;;;;;;;4962432;28;20042;-53
2021/03/28 02:52:38;;;;;;;17.45;2.90;;;;;;;;;;4962512;28;20488;-55
2021/03/28 02:55:04;;;;;;;22.55;3.35;;;;;;;;;;4962563;28;20801;-54
2021/03/28 02:57:33;;;;;;;12.27;3.53;;;;;;;;;;4962848;28;20042;-55
2021/03/28 03:00:04;;;;;;;21.25;4.57;;;;;;;;;;4962260;28;20049;-55
2021/03/28 03:02:36;;;;;;;15.57;3.50;;;;;;;;;;4959928;28;20608;-55
2021/03/28 03:05:02;;;;;;;12.65;3.20;;;;;;;;;;4960973;28;20038;-56
2021/03/28 03:07:31;;;;;;;20.45;4.22;;;;;;;;;;4961483;28;21986;-56
2021/03/28 03:10:13;;;;;;;16.90;3.95;;;;;;;;;;4961079;28;20051;-55
2021/03/28 03:12:43;;;;;;;12.98;4.15;;;;;;;;;;4961206;28;20042;-56
2021/03/28 03:15:09;;;;;;;17.92;4.30;;;;;;;;;;4961778;28;20049;-55
2021/03/28 03:17:54;;;;;;;24.70;5.28;;;;;;;;;;4960621;28;20042;-56
2021/03/28 03:20:21;;;;;;;44.92;6.25;;;;;;;;;;4964560;28;20148;-56
2021/03/28 03:23:05;;;;;;;30.50;4.90;;;;;;;;;;4995974;28;20054;-54
2021/03/28 03:25:52;;;;;;;24.50;4.93;;;;;;;;;;4957152;28;20836;-56
2021/03/28 03:28:37;;;;;;;20.95;4.72;;;;;;;;;;4974574;28;20031;-53
2021/03/28 03:31:22;;;;;;;22.77;5.90;;;;;;;;;;4963934;28;20986;-54
2021/03/28 03:33:58;;;;;;;19.98;5.03;;;;;;;;;;4964757;28;20098;-54
2021/03/28 03:36:30;;;;;;;17.52;4.85;;;;;;;;;;4962295;28;20503;-53
2021/03/28 03:39:11;;;;;;;19.40;5.38;;;;;;;;;;4964799;28;20161;-54
2021/03/28 03:41:43;;;;;;;26.10;5.88;;;;;;;;;;4965833;28;20050;-55
2021/03/28 03:44:14;;;;;;;19.85;5.30;;;;;;;;;;4963158;28;20051;-55
2021/03/28 03:46:44;;;;;;;21.77;5.93;;;;;;;;;;4963850;28;20034;-55
2021/03/28 03:49:31;;;;;;;22.73;6.25;;;;;;;;;;4965641;28;20070;-53
2021/03/28 03:52:07;;;;;;;22.75;5.47;;;;;;;;;;4937267;28;20057;-52
2021/03/28 03:54:45;;;;;;;16.73;6.20;;;;;;;;;;4962564;28;20049;-54
2021/03/28 03:57:36;;;;;;;20.38;5.30;;;;;;;;;;4965625;28;20051;-54
2021/03/28 04:00:37;;;;;;;17.00;5.50;;;;;;;;;;4963258;28;20038;-54
2021/03/28 04:03:12;;;;;;;15.82;5.47;;;;;;;;;;4959066;28;20104;-55
2021/03/28 04:05:38;;;;;;;16.67;5.63;;;;;;;;;;4956912;28;20043;-55
2021/03/28 04:08:22;;;;;;;27.50;6.78;;;;;;;;;;4965071;28;20110;-55
2021/03/28 04:11:00;;;;;;;23.27;6.93;;;;;;;;;;4957625;28;20039;-54
2021/03/28 04:13:26;;;;;;;21.50;6.85;;;;;;;;;;4966543;28;20408;-57
2021/03/28 04:16:07;;;;;;;22.48;6.88;;;;;;;;;;4966452;28;20045;-57
2021/03/28 04:18:41;;;;;;;18.42;7.20;;;;;;;;;;4967230;28;20038;-57
2021/03/28 04:21:16;;;;;;;18.02;7.95;;;;;;;;;;4966204;28;22007;-58
2021/03/28 04:23:51;;;;;;;23.23;8.20;;;;;;;;;;4965026;28;20238;-56
2021/03/28 04:26:21;;;;;;;17.17;6.80;;;;;;;;;;4964570;28;20047;-56
2021/03/28 04:28:51;;;;;;;19.90;6.93;;;;;;;;;;4966055;28;20035;-57
2021/03/28 04:31:35;;;;;;;19.23;6.07;;;;;;;;;;4963942;28;20038;-56
2021/03/28 04:34:13;;;;;;;15.20;6.18;;;;;;;;;;4965069;28;20037;-57
2021/03/28 04:36:48;;;;;;;18.35;6.07;;;;;;;;;;4963647;28;20047;-58
2021/03/28 04:39:16;;;;;;;20.23;6.10;;;;;;;;;;4965096;28;20046;-57
2021/03/28 04:42:03;;;;;;;25.30;6.07;;;;;;;;;;4964533;28;20054;-58
2021/03/28 04:44:44;;;;;;;17.98;6.03;;;;;;;;;;4995978;28;20392;-57
2021/03/28 04:47:22;;;;;;;15.00;5.95;;;;;;;;;;4966671;28;20264;-53
2021/03/28 04:49:51;;;;;;;16.80;5.78;;;;;;;;;;4961651;28;20043;-56
2021/03/28 04:52:30;;;;;;;24.42;6.32;;;;;;;;;;4963278;28;20053;-57
2021/03/28 04:54:55;;;;;;;17.92;6.20;;;;;;;;;;4964045;28;20086;-58
2021/03/28 04:57:33;;;;;;;17.48;5.68;;;;;;;;;;4964534;28;20043;-56
2021/03/28 05:00:17;;;;;;;22.00;6.63;;;;;;;;;;4964566;28;20043;-56
2021/03/28 05:02:49;;;;;;;19.83;5.90;;;;;;;;;;4952691;28;20078;-55
2021/03/28 05:05:15;;;;;;;32.63;5.88;;;;;;;;;;4980618;28;20089;-57
2021/03/28 05:07:59;;;;;;;15.02;5.43;;;;;;;;;;4963461;28;20451;-57
2021/03/28 05:10:38;;;;;;;16.67;5.22;;;;;;;;;;4964500;28;20042;-56
2021/03/28 05:13:25;;;;;;;21.30;5.45;;;;;;;;;;4965548;28;20039;-55
2021/03/28 05:15:50;;;;;;;24.05;5.50;;;;;;;;;;4963895;28;20090;-57
2021/03/28 05:18:25;;;;;;;15.73;5.53;;;;;;;;;;4964333;28;20081;-56
2021/03/28 05:21:09;;;;;;;19.40;5.93;;;;;;;;;;4963799;28;20065;-58
2021/03/28 05:23:53;;;;;;;24.08;5.60;;;;;;;;;;4962138;28;20081;-58
2021/03/28 05:26:19;;;;;;;16.25;5.13;;;;;;;;;;4961331;28;20046;-58
2021/03/28 05:28:45;;;;;;;27.55;5.07;;;;;;;;;;4963292;28;20865;-58
2021/03/28 05:31:23;;;;;;;15.75;5.30;;;;;;;;;;4962839;28;20046;-57
2021/03/28 05:34:07;;;;;;;19.42;5.25;;;;;;;;;;4963657;28;20146;-58
2021/03/28 05:36:51;;;;;;;16.33;5.35;;;;;;;;;;4962170;28;20117;-58
2021/03/28 05:39:17;;;;;;;23.10;7.05;;;;;;;;;;4962461;28;20049;-58
2021/03/28 05:41:48;;;;;;;18.80;5.93;;;;;;;;;;4963996;28;20072;-57
2021/03/28 05:44:14;;;;;;;17.10;6.15;;;;;;;;;;4962627;28;21919;-58
2021/03/28 05:46:43;;;;;;;14.57;5.88;;;;;;;;;;4962209;28;20042;-58
2021/03/28 05:49:29;;;;;;;14.27;5.00;;;;;;;;;;4963601;28;20042;-57
2021/03/28 05:52:04;;;;;;;16.33;5.00;;;;;;;;;;4965279;28;20536;-56
2021/03/28 05:54:54;;;;;;;20.75;5.57;;;;;;;;;;4961394;28;20225;-58
2021/03/28 05:57:44;;;;;;;17.77;5.05;;;;;;;;;;4962090;28;20055;-58
2021/03/28 06:00:20;;;;;;;10.52;4.28;;;;;;;;;;4962557;28;20054;-57
2021/03/28 06:03:04;;;;;;;12.60;4.20;;;;;;;;;;4961924;28;20063;-57
2021/03/28 06:05:30;;;;;;;9.77;3.05;;;;;;;;;;4963408;28;20042;-57
2021/03/28 06:08:14;;;;;;;7.00;2.60;;;;;;;;;;4966475;28;20042;-56
2021/03/28 06:10:52;;;;;;;6.28;2.75;;;;;;;;;;4962712;28;20061;-57
2021/03/28 06:13:36;;;;;;;8.02;2.97;;;;;;;;;;4963866;28;20054;-56
2021/03/28 06:16:20;;;;;;;9.75;2.47;;;;;;;;;;4964411;28;20411;-56
2021/03/28 06:19:05;;;;;;;8.10;2.85;;;;;;;;;;4961167;28;20043;-57
2021/03/28 06:21:49;;;;;;;7.88;2.80;;;;;;;;;;4962546;28;20078;-56
2021/03/28 06:24:21;;;;;;;9.20;2.97;;;;;;;;;;4961238;28;20755;-57
2021/03/28 06:27:09;;;;;;;8.98;2.85;;;;;;;;;;4953540;28;20763;-56
2021/03/28 06:29:38;;;;;;;15.85;3.05;;;;;;;;;;4962392;28;20046;-56
2021/03/28 06:32:22;;;;;;;16.92;3.60;;;;;;;;;;4962041;28;20031;-56
2021/03/28 06:35:03;;;;;;;9.77;2.60;;;;;;;;;;4961296;28;20628;-56
2021/03/28 06:37:38;;;;;;;9.25;2.67;;;;;;;;;;4957731;28;20035;-56
2021/03/28 06:40:10;;;;;;;15.02;4.60;;;;;;;;;;4959938;28;20070;-56
2021/03/28 06:42:38;;;;;;;10.68;4.00;;;;;;;;;;4960239;28;20050;-56
2021/03/28 06:45:04;;;;;;;14.40;4.25;;;;;;;;;;4961113;28;20037;-56
2021/03/28 06:47:30;;;;;;;12.70;3.88;;;;;;;;;;4974767;28;20042;-54
2021/03/28 06:49:56;;;;;;;10.77;2.97;;;;;;;;;;4961307;28;20034;-55
2021/03/28 06:52:45;;;;;;;10.23;3.08;;;;;;;;;;4961380;28;20043;-55
2021/03/28 06:55:33;;;;;;;10.02;3.10;;;;;;;;;;4958029;28;20050;-56
2021/03/28 06:58:10;;;;;;;8.35;2.75;;;;;;;;;;4961592;28;20035;-56
2021/03/28 07:00:46;;;;;;;9.15;2.78;;;;;;;;;;4962561;28;20129;-56
2021/03/28 07:03:12;;;;;;;10.40;3.20;;;;;;;;;;4961267;28;20043;-56
2021/03/28 07:06:00;;;;;;;6.50;2.80;;;;;;;;;;4991398;28;20050;-57
2021/03/28 07:08:45;;;;;;;10.48;3.00;;;;;;;;;;4962074;28;20134;-56
2021/03/28 07:11:14;;;;;;;9.48;3.00;;;;;;;;;;4961520;28;20072;-55
2021/03/28 07:13:47;;;;;;;12.40;2.90;;;;;;;;;;4961275;28;20575;-56
2021/03/28 07:16:21;;;;;;;8.57;2.30;;;;;;;;;;4962178;28;20059;-57
2021/03/28 07:19:16;;;;;;;11.75;2.80;;;;;;;;;;4962013;28;20068;-57
2021/03/28 07:21:45;;;;;;;5.57;1.90;;;;;;;;;;4962391;28;20079;-56
2021/03/28 07:24:26;;;;;;;6.38;2.22;;;;;;;;;;4961986;28;20606;-58
2021/03/28 07:26:55;;;;;;;5.90;2.42;;;;;;;;;;4959795;28;20445;-56
2021/03/28 07:29:39;;;;;;;7.85;2.50;;;;;;;;;;4974501;28;20046;-56
2021/03/28 07:32:18;;;;;;;7.13;2.28;;;;;;;;;;4963139;28;20038;-58
2021/03/28 07:35:02;;;;;;;8.65;2.78;;;;;;;;;;4992771;28;20043;-57
2021/03/28 07:37:43;;;;;;;10.00;2.60;;;;;;;;;;4960750;28;20042;-58
2021/03/28 07:40:34;;;;;;;9.35;2.80;;;;;;;;;;4962742;28;20393;-58
2021/03/28 07:43:12;;;;;;;7.95;2.75;;;;;;;;;;4958967;28;20633;-58
2021/03/28 07:45:41;;;;;;;6.72;2.30;;;;;;;;;;4961908;28;20049;-58
2021/03/28 07:48:22;;;;;;;5.40;1.50;;;;;;;;;;4963970;28;20045;-58
2021/03/28 07:50:54;;;;;;;3.05;1.00;;;;;;;;;;4962936;28;20154;-57
2021/03/28 07:53:43;;;;;;;3.38;1.10;;;;;;;;;;4961349;28;20137;-58
2021/03/28 07:56:15;;;;;;;3.97;1.00;;;;;;;;;;4962647;28;20078;-58
2021/03/28 07:58:43;;;;;;;4.47;1.00;;;;;;;;;;4976009;28;20117;-57
2021/03/28 08:01:27;;;;;;;4.60;1.00;;;;;;;;;;4962136;28;20051;-56
2021/03/28 08:04:11;;;;;;;3.97;0.90;;;;;;;;;;4962521;28;20074;-56
2021/03/28 08:06:50;;;;;;;3.10;0.90;;;;;;;;;;4962151;28;20045;-57
2021/03/28 08:09:35;;;;;;;5.38;1.08;;;;;;;;;;4968129;28;20043;-56
2021/03/28 08:12:07;;;;;;;5.43;1.00;;;;;;;;;;4965854;28;20113;-58
2021/03/28 08:14:52;;;;;;;6.85;1.30;;;;;;;;;;4964178;28;20133;-57
2021/03/28 08:17:24;;;;;;;6.65;1.23;;;;;;;;;;4967022;28;20044;-57
2021/03/28 08:20:03;;;;;;;4.43;1.67;;;;;;;;;;4995787;28;20090;-55
2021/03/28 08:22:47;;;;;;;6.65;1.30;;;;;;;;;;4963423;28;20126;-55
2021/03/28 08:25:26;;;;;;;3.50;1.30;;;;;;;;;;4967064;28;20035;-56
2021/03/28 08:28:10;;;;;;;5.55;1.65;;;;;;;;;;4967032;28;20050;-57
2021/03/28 08:30:45;;;;;;;4.07;1.50;;;;;;;;;;4967957;28;20074;-57
2021/03/28 08:33:23;;;;;;;4.85;1.52;;;;;;;;;;4965413;28;20525;-58
2021/03/28 08:36:01;;;;;;;4.90;1.60;;;;;;;;;;4968502;28;20041;-56
2021/03/28 08:38:36;;;;;;;5.22;1.83;;;;;;;;;;4966953;28;20042;-57
2021/03/28 08:41:02;;;;;;;3.28;1.17;;;;;;;;;;4967255;28;20069;-57
2021/03/28 08:43:40;;;;;;;5.93;1.42;;;;;;;;;;4965682;28;20051;-58
2021/03/28 08:46:24;;;;;;;3.88;1.48;;;;;;;;;;4982323;28;20064;-58
2021/03/28 08:48:50;;;;;;;5.80;1.65;;;;;;;;;;4966545;28;20055;-58
2021/03/28 08:51:31;;;;;;;7.80;1.67;;;;;;;;;;4968417;28;20063;-57
2021/03/28 08:54:06;;;;;;;8.60;2.17;;;;;;;;;;4964566;28;20051;-57
2021/03/28 08:56:47;;;;;;;5.63;2.15;;;;;;;;;;4965396;28;20046;-57
2021/03/28 08:59:25;;;;;;;8.50;2.08;;;;;;;;;;4974653;28;20568;-55
2021/03/28 09:02:06;;;;;;;6.13;1.70;;;;;;;;;;4966589;28;20047;-57
2021/03/28 09:04:42;;;;;;;8.32;1.75;;;;;;;;;;4966409;28;20848;-57
2021/03/28 09:07:07;;;;;;;8.10;1.42;;;;;;;;;;4968506;28;20039;-56
2021/03/28 09:09:33;;;;;;;5.57;1.50;;;;;;;;;;4965718;28;20057;-57
2021/03/28 09:12:07;;;;;;;7.35;1.52;;;;;;;;;;4968610;28;20130;-53
2021/03/28 09:14:44;;;;;;;4.82;1.60;;;;;;;;;;4965109;28;20062;-57
2021/03/28 09:17:39;;;;;;;8.95;1.30;;;;;;;;;;4964611;28;20043;-57
2021/03/28 09:20:20;;;;;;;6.35;1.27;;;;;;;;;;4959561;28;20043;-57
2021/03/28 09:22:51;;;;;;;10.75;1.40;;;;;;;;;;4962430;28;20073;-56
2021/03/28 09:25:23;;;;;;;6.60;1.10;;;;;;;;;;4963809;28;20042;-56
2021/03/28 09:27:51;;;;;;;5.47;1.20;;;;;;;;;;4964297;28;20042;-55
2021/03/28 09:30:21;;;;;;;6.32;1.05;;;;;;;;;;4963954;28;20042;-57
2021/03/28 09:33:05;;;;;;;3.70;1.00;;;;;;;;;;4963050;28;20049;-57
2021/03/28 09:35:51;;;;;;;3.55;1.00;;;;;;;;;;4962521;28;20042;-57
2021/03/28 09:38:49;;;;;;;5.22;0.90;;;;;;;;;;4964019;28;20065;-58
2021/03/28 09:41:15;;;;;;;5.22;1.00;;;;;;;;;;4956739;28;21961;-58
2021/03/28 09:43:59;;;;;;;6.07;0.75;;;;;;;;;;4963031;28;20046;-55
2021/03/28 09:46:25;;;;;;;3.33;0.90;;;;;;;;;;4962622;28;20134;-56
2021/03/28 09:48:59;;;;;;;4.50;0.93;;;;;;;;;;4962992;28;20030;-56
2021/03/28 09:51:47;;;;;;;3.30;0.85;;;;;;;;;;4963466;28;20511;-57
2021/03/28 09:54:22;;;;;;;7.53;1.02;;;;;;;;;;4962435;28;20070;-55
2021/03/28 09:56:57;;;;;;;3.20;0.80;;;;;;;;;;4962622;28;20053;-54
2021/03/28 09:59:29;;;;;;;2.65;0.80;;;;;;;;;;4961710;28;20039;-57
2021/03/28 10:02:13;;;;;;;3.65;0.80;;;;;;;;;;4962473;28;20081;-56
2021/03/28 10:04:58;;;;;;;3.85;0.90;;;;;;;;;;4964666;28;20443;-56
2021/03/28 10:07:28;;;;;;;4.57;1.10;;;;;;;;;;4963328;28;20058;-56
2021/03/28 10:10:10;;;;;;;3.13;1.08;;;;;;;;;;4964211;28;20039;-57
2021/03/28 10:12:42;;;;;;;5.40;1.17;;;;;;;;;;4969143;28;20042;-55
2021/03/28 10:15:21;;;;;;;2.90;1.00;;;;;;;;;;4964285;28;20057;-57
2021/03/28 10:18:05;;;;;;;3.53;0.85;;;;;;;;;;4963852;28;20039;-57
2021/03/28 10:20:37;;;;;;;4.28;0.75;;;;;;;;;;4963700;28;20038;-55
2021/03/28 10:23:21;;;;;;;3.75;0.80;;;;;;;;;;4963763;28;20055;-56
2021/03/28 10:25:56;;;;;;;2.53;0.70;;;;;;;;;;4965082;28;20039;-57
2021/03/28 10:28:47;;;;;;;2.35;0.70;;;;;;;;;;4963814;28;20105;-55
2021/03/28 10:31:22;;;;;;;4.68;0.90;;;;;;;;;;4965102;28;20035;-56
2021/03/28 10:33:48;;;;;;;3.03;0.77;;;;;;;;;;4962287;28;20047;-57
2021/03/28 10:36:32;;;;;;;3.85;0.80;;;;;;;;;;4964276;28;20081;-56
2021/03/28 10:39:16;;;;;;;3.03;0.80;;;;;;;;;;4963004;28;20057;-56
2021/03/28 10:41:48;;;;;;;5.97;0.70;;;;;;;;;;4978764;28;20046;-57
2021/03/28 10:44:23;;;;;;;1.92;0.60;;;;;;;;;;4962987;28;20125;-57
2021/03/28 10:46:48;;;;;;;2.30;0.63;;;;;;;;;;4961611;28;20046;-56
2021/03/28 10:49:14;;;;;;;1.70;0.50;;;;;;;;;;4963569;28;20113;-57
2021/03/28 10:51:49;;;;;;;4.53;0.88;;;;;;;;;;4963734;28;20049;-60
2021/03/28 10:54:33;;;;;;;1.58;0.50;;;;;;;;;;4962095;28;20047;-57
2021/03/28 10:57:17;;;;;;;2.95;0.70;;;;;;;;;;4961493;28;20088;-57
2021/03/28 11:00:02;;;;;;;2.55;0.70;;;;;;;;;;4962045;28;20409;-56
2021/03/28 11:02:43;;;;;;;2.63;0.70;;;;;;;;;;4963686;28;20062;-57
2021/03/28 11:05:09;;;;;;;3.38;0.70;;;;;;;;;;4965141;28;20047;-56
2021/03/28 11:07:46;;;;;;;2.17;0.57;;;;;;;;;;4954714;28;20050;-55
2021/03/28 11:10:27;;;;;;;4.10;1.00;;;;;;;;;;4961632;28;20066;-55
2021/03/28 11:13:11;;;;;;;4.18;0.70;;;;;;;;;;4993506;28;20038;-56
2021/03/28 11:15:55;;;;;;;1.67;0.68;;;;;;;;;;4962425;28;20102;-56
2021/03/28 11:18:21;;;;;;;1.95;0.50;;;;;;;;;;4960247;28;20066;-57
2021/03/28 11:20:56;;;;;;;2.10;0.50;;;;;;;;;;4962794;28;20081;-57
2021/03/28 11:23:32;;;;;;;4.20;0.50;;;;;;;;;;4961684;28;20742;-55
2021/03/28 11:25:58;;;;;;;2.45;0.50;;;;;;;;;;4962155;28;20070;-57
2021/03/28 11:28:24;;;;;;;2.00;0.60;;;;;;;;;;4961238;28;20137;-55
2021/03/28 11:31:05;;;;;;;3.33;0.63;;;;;;;;;;4963786;28;20042;-55
2021/03/28 11:33:36;;;;;;;4.47;0.70;;;;;;;;;;4961195;28;20077;-57
2021/03/28 11:36:05;;;;;;;1.98;0.60;;;;;;;;;;4962367;28;20105;-57
2021/03/28 11:38:34;;;;;;;3.15;0.70;;;;;;;;;;4962498;28;20038;-57
2021/03/28 11:41:06;;;;;;;1.95;0.50;;;;;;;;;;4964254;28;20112;-56
2021/03/28 11:43:35;;;;;;;2.42;0.73;;;;;;;;;;4964963;28;20062;-56
2021/03/28 11:46:04;;;;;;;3.38;0.70;;;;;;;;;;4965751;28;20698;-55
2021/03/28 11:48:35;;;;;;;3.33;0.60;;;;;;;;;;4966653;28;20529;-56
2021/03/28 11:51:20;;;;;;;2.10;0.60;;;;;;;;;;4966681;28;20057;-55
2021/03/28 11:53:48;;;;;;;3.28;0.77;;;;;;;;;;4964439;28;20089;-56
2021/03/28 11:56:32;;;;;;;2.30;0.55;;;;;;;;;;4965109;28;20113;-57
2021/03/28 11:59:00;;;;;;;2.63;0.60;;;;;;;;;;4964730;28;20042;-57
2021/03/28 12:01:44;;;;;;;2.83;0.70;;;;;;;;;;4966380;28;20093;-54
2021/03/28 12:04:33;;;;;;;2.45;0.60;;;;;;;;;;4966332;28;20048;-56
2021/03/28 12:06:59;;;;;;;2.45;0.65;;;;;;;;;;4965812;28;20034;-56
2021/03/28 12:09:27;;;;;;;2.05;1.00;;;;;;;;;;4965951;28;20373;-56
2021/03/28 12:11:54;;;;;;;3.28;0.70;;;;;;;;;;4965693;28;20039;-56
2021/03/28 12:14:19;;;;;;;2.47;0.60;;;;;;;;;;4964632;28;20108;-55
2021/03/28 12:17:04;;;;;;;4.55;0.70;;;;;;;;;;4964241;28;20447;-56
2021/03/28 12:19:34;;;;;;;2.78;0.60;;;;;;;;;;4964711;28;20765;-56
2021/03/28 12:22:01;;;;;;;3.42;0.60;;;;;;;;;;4965112;28;20055;-56
2021/03/28 12:24:29;;;;;;;8.75;0.90;;;;;;;;;;4963742;28;20114;-56
2021/03/28 12:26:57;;;;;;;4.43;0.68;;;;;;;;;;4965565;28;20101;-55
2021/03/28 12:29:23;;;;;;;3.70;0.82;;;;;;;;;;4964055;28;20042;-56
2021/03/28 12:31:52;;;;;;;2.42;0.70;;;;;;;;;;4964718;28;20122;-56
2021/03/28 12:34:24;;;;;;;2.75;0.60;;;;;;;;;;4964697;28;20054;-56
2021/03/28 12:37:24;;;;;;;6.03;0.80;;;;;;;;;;4963825;28;20187;-57
2021/03/28 12:39:49;;;;;;;3.90;0.60;;;;;;;;;;4964770;28;20093;-57
2021/03/28 12:42:18;;;;;;;3.38;1.13;;;;;;;;;;4965601;28;20337;-56
2021/03/28 12:44:45;;;;;;;4.00;0.60;;;;;;;;;;4965471;28;20053;-56
2021/03/28 12:47:20;;;;;;;4.35;0.70;;;;;;;;;;4965442;28;20587;-55
2021/03/28 12:49:46;;;;;;;5.75;1.15;;;;;;;;;;4964772;28;20170;-56
2021/03/28 12:52:11;;;;;;;4.57;0.60;;;;;;;;;;4965245;28;20038;-56
2021/03/28 12:54:57;;;;;;;2.55;0.68;;;;;;;;;;4964732;28;20131;-56
2021/03/28 12:57:31;;;;;;;4.65;0.80;;;;;;;;;;4963825;28;20070;-56
2021/03/28 13:00:15;;;;;;;2.90;0.63;;;;;;;;;;4965207;28;20145;-56
2021/03/28 13:02:42;;;;;;;3.00;0.82;;;;;;;;;;4964632;28;20137;-57
2021/03/28 13:05:13;;;;;;;6.88;2.30;;;;;;;;;;4965203;28;20070;-57
2021/03/28 13:07:45;;;;;;;6.10;1.60;;;;;;;;;;4963292;28;20038;-56
2021/03/28 13:10:14;;;;;;;4.95;1.80;;;;;;;;;;4964248;28;20035;-56
2021/03/28 13:12:39;;;;;;;2.72;0.70;;;;;;;;;;4964119;28;20491;-56
2021/03/28 13:15:14;;;;;;;2.15;0.60;;;;;;;;;;4966137;28;20042;-56
2021/03/28 13:17:40;;;;;;;5.43;0.60;;;;;;;;;;4963825;28;20039;-56
2021/03/28 13:20:24;;;;;;;3.42;0.63;;;;;;;;;;4965884;28;20035;-54
2021/03/28 13:22:51;;;;;;;2.97;0.55;;;;;;;;;;4965052;28;20054;-54
2021/03/28 13:25:17;;;;;;;2.88;0.90;;;;;;;;;;4965585;28;20098;-55
2021/03/28 13:27:43;;;;;;;9.20;2.10;;;;;;;;;;4962716;28;20035;-56
2021/03/28 13:30:20;;;;;;;6.88;2.13;;;;;;;;;;4961828;28;20086;-54
2021/03/28 13:32:47;;;;;;;4.85;1.70;;;;;;;;;;4965119;28;20100;-55
2021/03/28 13:35:28;;;;;;;3.00;1.00;;;;;;;;;;4964607;28;20081;-55
2021/03/28 13:37:55;;;;;;;8.38;1.42;;;;;;;;;;4963446;28;20050;-54
2021/03/28 13:40:44;;;;;;;6.90;1.10;;;;;;;;;;4962388;28;20038;-58
2021/03/28 13:43:19;;;;;;;4.80;1.20;;;;;;;;;;4964775;28;20053;-57
2021/03/28 13:45:45;;;;;;;3.72;1.40;;;;;;;;;;4964288;28;20045;-56
2021/03/28 13:48:11;;;;;;;2.78;0.70;;;;;;;;;;4964407;28;22004;-56
2021/03/28 13:50:45;;;;;;;5.40;0.73;;;;;;;;;;4962756;28;20047;-54
2021/03/28 13:53:17;;;;;;;3.20;0.70;;;;;;;;;;4963151;28;20047;-56
2021/03/28 13:56:02;;;;;;;4.22;0.70;;;;;;;;;;4963312;28;20054;-56
2021/03/28 13:58:29;;;;;;;3.80;0.63;;;;;;;;;;4963374;28;20057;-54
2021/03/28 14:01:18;;;;;;;4.07;1.15;;;;;;;;;;4965432;28;20077;-52
2021/03/28 14:03:44;;;;;;;10.20;1.20;;;;;;;;;;4961298;28;20077;-54
2021/03/28 14:06:25;;;;;;;1.85;0.47;;;;;;;;;;4963945;28;20146;-56
2021/03/28 14:09:11;;;;;;;4.50;0.70;;;;;;;;;;5001781;28;20041;-57
2021/03/28 14:11:46;;;;;;;3.05;0.65;;;;;;;;;;4962054;28;20520;-55
2021/03/28 14:14:18;;;;;;;1.80;0.47;;;;;;;;;;4962965;28;20061;-53
2021/03/28 14:16:44;;;;;;;4.10;0.65;;;;;;;;;;4962029;28;20058;-53
2021/03/28 14:19:12;;;;;;;2.28;0.73;;;;;;;;;;4963261;28;20043;-53
2021/03/28 14:21:47;;;;;;;2.50;0.60;;;;;;;;;;4962191;28;20074;-57
2021/03/28 14:24:17;;;;;;;2.50;0.57;;;;;;;;;;4964944;28;20161;-55
2021/03/28 14:26:43;;;;;;;4.35;0.80;;;;;;;;;;4960927;28;20045;-55
2021/03/28 14:29:21;;;;;;;1.67;0.40;;;;;;;;;;4964224;28;20035;-55
2021/03/28 14:31:49;;;;;;;2.60;0.70;;;;;;;;;;4964167;28;20662;-56
2021/03/28 14:34:27;;;;;;;0.95;0.40;;;;;;;;;;4965136;28;20054;-55
2021/03/28 14:36:54;;;;;;;1.50;0.40;;;;;;;;;;4963031;28;20451;-58
2021/03/28 14:39:38;;;;;;;1.17;0.47;;;;;;;;;;4964089;28;20125;-57
2021/03/28 14:42:11;;;;;;;1.27;0.40;;;;;;;;;;4965042;28;20451;-57
2021/03/28 14:44:42;;;;;;;2.25;0.40;;;;;;;;;;4965005;28;20053;-58
2021/03/28 14:47:26;;;;;;;2.70;0.60;;;;;;;;;;4963704;28;20161;-54
2021/03/28 14:50:01;;;;;;;3.20;0.40;;;;;;;;;;4963960;28;20039;-53
2021/03/28 14:52:33;;;;;;;2.97;0.40;;;;;;;;;;4964805;28;20909;-55
2021/03/28 14:55:17;;;;;;;1.85;0.40;;;;;;;;;;4965015;28;20050;-52
2021/03/28 14:57:51;;;;;;;3.00;0.70;;;;;;;;;;4961084;28;20053;-55
2021/03/28 15:00:24;;;;;;;4.15;0.80;;;;;;;;;;4962266;28;20411;-51
2021/03/28 15:03:00;;;;;;;1.75;0.50;;;;;;;;;;4963728;28;22744;-55
2021/03/28 15:05:44;;;;;;;3.70;0.70;;;;;;;;;;4963095;28;20042;-52
2021/03/28 15:08:22;;;;;;;2.45;0.40;;;;;;;;;;4978333;28;20038;-58
2021/03/28 15:11:05;;;;;;;1.23;0.47;;;;;;;;;;4960616;28;20097;-51
2021/03/28 15:13:33;;;;;;;1.63;0.40;;;;;;;;;;4959636;28;20050;-56
2021/03/28 15:16:02;;;;;;;1.90;0.50;;;;;;;;;;4963090;28;20567;-51
2021/03/28 15:18:37;;;;;;;1.60;0.35;;;;;;;;;;4961853;28;20451;-56
2021/03/28 15:21:05;;;;;;;4.75;0.43;;;;;;;;;;4961556;28;20081;-55
2021/03/28 15:23:31;;;;;;;1.95;0.60;;;;;;;;;;4961153;28;20047;-55
2021/03/28 15:25:57;;;;;;;2.72;0.40;;;;;;;;;;4961453;28;20507;-55
2021/03/28 15:28:31;;;;;;;2.17;0.45;;;;;;;;;;4962380;28;20053;-54